sensor_id;sensor_type;location;lat;lon;timestamp;pressure;altitude;pressure_sealevel;temperature;humidity
49841;BME280;35738;49.890;5.930;2023-04-30T00:01:26;96261.63;;;5.95;100.00
49841;BME280;35738;49.890;5.930;2023-04-30T00:03:52;96266.50;;;5.98;100.00
49841;BME280;35738;49.890;5.930;2023-04-30T00:06:19;96267.59;;;5.97;100.00
49841;BME280;35738;49.890;5.930;2023-04-30T00:08:46;96261.06;;;5.93;100.00
49841;BME280;35738;49.890;5.930;2023-04-30T00:11:12;96266.81;;;5.92;100.00
49841;BME280;35738;49.890;5.930;2023-04-30T00:13:39;96263.81;;;5.88;100.00
49841;BME280;35738;49.890;5.930;2023-04-30T00:16:07;96280.53;;;5.82;100.00
49841;BME280;35738;49.890;5.930;2023-04-30T00:18:33;96281.13;;;5.79;100.00
49841;BME280;35738;49.890;5.930;2023-04-30T00:21:00;96280.59;;;5.77;100.00
49841;BME280;35738;49.890;5.930;2023-04-30T00:23:27;96284.16;;;5.77;100.00
49841;BME280;35738;49.890;5.930;2023-04-30T00:25:53;96273.81;;;5.74;100.00
49841;BME280;35738;49.890;5.930;2023-04-30T00:28:20;96271.66;;;5.71;100.00
49841;BME280;35738;49.890;5.930;2023-04-30T00:30:46;96270.31;;;5.68;100.00
49841;BME280;35738;49.890;5.930;2023-04-30T00:33:13;96267.88;;;5.67;100.00
49841;BME280;35738;49.890;5.930;2023-04-30T00:35:39;96269.28;;;5.64;100.00
49841;BME280;35738;49.890;5.930;2023-04-30T00:38:07;96264.63;;;5.65;100.00
49841;BME280;35738;49.890;5.930;2023-04-30T00:40:37;96261.91;;;5.65;100.00
49841;BME280;35738;49.890;5.930;2023-04-30T00:43:05;96270.41;;;5.58;100.00
49841;BME280;35738;49.890;5.930;2023-04-30T00:45:31;96270.66;;;5.62;100.00
49841;BME280;35738;49.890;5.930;2023-04-30T00:47:58;96274.50;;;5.61;100.00
49841;BME280;35738;49.890;5.930;2023-04-30T00:50:25;96278.56;;;5.63;100.00
49841;BME280;35738;49.890;5.930;2023-04-30T00:52:51;96277.75;;;5.63;100.00
49841;BME280;35738;49.890;5.930;2023-04-30T00:55:18;96281.56;;;5.62;100.00
49841;BME280;35738;49.890;5.930;2023-04-30T00:57:45;96271.75;;;5.61;100.00
49841;BME280;35738;49.890;5.930;2023-04-30T01:00:12;96273.38;;;5.62;100.00
49841;BME280;35738;49.890;5.930;2023-04-30T01:02:39;96277.22;;;5.61;100.00
49841;BME280;35738;49.890;5.930;2023-04-30T01:05:06;96278.84;;;5.62;100.00
49841;BME280;35738;49.890;5.930;2023-04-30T01:07:36;96273.69;;;5.60;100.00
49841;BME280;35738;49.890;5.930;2023-04-30T01:10:12;96273.97;;;5.59;100.00
49841;BME280;35738;49.890;5.930;2023-04-30T01:15:23;96277.50;;;5.59;100.00
49841;BME280;35738;49.890;5.930;2023-04-30T01:20:27;96269.59;;;5.58;100.00
49841;BME280;35738;49.890;5.930;2023-04-30T01:23:08;96270.19;;;5.55;100.00
49841;BME280;35738;49.890;5.930;2023-04-30T01:28:12;96271.25;;;5.59;100.00
49841;BME280;35738;49.890;5.930;2023-04-30T01:30:40;96266.59;;;5.59;100.00
49841;BME280;35738;49.890;5.930;2023-04-30T01:33:10;96273.91;;;5.64;100.00
49841;BME280;35738;49.890;5.930;2023-04-30T01:41:12;96268.69;;;5.67;100.00
49841;BME280;35738;49.890;5.930;2023-04-30T01:43:54;96265.72;;;5.64;100.00
49841;BME280;35738;49.890;5.930;2023-04-30T01:46:30;96254.28;;;5.62;100.00
49841;BME280;35738;49.890;5.930;2023-04-30T01:49:24;96264.69;;;5.60;100.00
49841;BME280;35738;49.890;5.930;2023-04-30T01:51:59;96256.53;;;5.55;100.00
49841;BME280;35738;49.890;5.930;2023-04-30T01:54:52;96267.16;;;5.56;100.00
49841;BME280;35738;49.890;5.930;2023-04-30T01:57:28;96268.22;;;5.60;100.00
49841;BME280;35738;49.890;5.930;2023-04-30T01:59:57;96269.84;;;5.61;100.00
49841;BME280;35738;49.890;5.930;2023-04-30T02:02:24;96265.19;;;5.62;100.00
49841;BME280;35738;49.890;5.930;2023-04-30T02:04:50;96260.31;;;5.59;100.00
49841;BME280;35738;49.890;5.930;2023-04-30T02:07:36;96261.38;;;5.63;100.00
49841;BME280;35738;49.890;5.930;2023-04-30T02:10:05;96269.56;;;5.63;100.00
49841;BME280;35738;49.890;5.930;2023-04-30T02:12:33;96264.09;;;5.63;100.00
49841;BME280;35738;49.890;5.930;2023-04-30T02:15:03;96264.63;;;5.65;100.00
49841;BME280;35738;49.890;5.930;2023-04-30T02:17:31;96266.25;;;5.66;100.00
49841;BME280;35738;49.890;5.930;2023-04-30T02:19:58;96269.78;;;5.66;100.00
49841;BME280;35738;49.890;5.930;2023-04-30T02:22:25;96255.38;;;5.61;100.00
49841;BME280;35738;49.890;5.930;2023-04-30T02:24:52;96258.69;;;5.58;100.00
49841;BME280;35738;49.890;5.930;2023-04-30T02:27:22;96257.31;;;5.60;100.00
49841;BME280;35738;49.890;5.930;2023-04-30T02:29:49;96248.88;;;5.57;100.00
49841;BME280;35738;49.890;5.930;2023-04-30T02:32:15;96246.72;;;5.54;100.00
49841;BME280;35738;49.890;5.930;2023-04-30T02:34:42;96248.13;;;5.51;100.00
49841;BME280;35738;49.890;5.930;2023-04-30T02:37:10;96246.25;;;5.47;100.00
49841;BME280;35738;49.890;5.930;2023-04-30T02:39:40;96255.53;;;5.46;100.00
49841;BME280;35738;49.890;5.930;2023-04-30T02:42:07;96249.56;;;5.43;100.00
49841;BME280;35738;49.890;5.930;2023-04-30T02:44:33;96236.50;;;5.40;100.00
49841;BME280;35738;49.890;5.930;2023-04-30T02:47:01;96246.34;;;5.36;100.00
49841;BME280;35738;49.890;5.930;2023-04-30T02:49:28;96240.66;;;5.33;100.00
49841;BME280;35738;49.890;5.930;2023-04-30T02:51:54;96237.13;;;5.32;100.00
49841;BME280;35738;49.890;5.930;2023-04-30T02:54:21;96241.47;;;5.33;100.00
49841;BME280;35738;49.890;5.930;2023-04-30T02:56:48;96234.44;;;5.27;100.00
49841;BME280;35738;49.890;5.930;2023-04-30T02:59:14;96236.06;;;5.28;100.00
49841;BME280;35738;49.890;5.930;2023-04-30T03:01:41;96241.56;;;5.23;100.00
49841;BME280;35738;49.890;5.930;2023-04-30T03:04:08;96238.06;;;5.18;100.00
49841;BME280;35738;49.890;5.930;2023-04-30T03:06:34;96234.03;;;5.10;100.00
49841;BME280;35738;49.890;5.930;2023-04-30T03:09:01;96229.38;;;5.10;100.00
49841;BME280;35738;49.890;5.930;2023-04-30T03:11:27;96237.28;;;5.12;100.00
49841;BME280;35738;49.890;5.930;2023-04-30T03:13:54;96231.88;;;5.07;100.00
49841;BME280;35738;49.890;5.930;2023-04-30T03:16:21;96229.16;;;5.07;100.00
49841;BME280;35738;49.890;5.930;2023-04-30T03:18:48;96234.13;;;5.00;100.00
49841;BME280;35738;49.890;5.930;2023-04-30T03:21:15;96237.94;;;4.99;100.00
49841;BME280;35738;49.890;5.930;2023-04-30T03:23:42;96240.66;;;4.99;100.00
49841;BME280;35738;49.890;5.930;2023-04-30T03:26:09;96244.25;;;4.94;100.00
49841;BME280;35738;49.890;5.930;2023-04-30T03:28:35;96243.16;;;4.95;100.00
49841;BME280;35738;49.890;5.930;2023-04-30T03:31:02;96243.44;;;4.94;100.00
49841;BME280;35738;49.890;5.930;2023-04-30T03:33:31;96246.16;;;4.94;100.00
49841;BME280;35738;49.890;5.930;2023-04-30T03:35:59;96241.00;;;4.92;100.00
49841;BME280;35738;49.890;5.930;2023-04-30T03:38:25;96237.44;;;4.92;100.00
49841;BME280;35738;49.890;5.930;2023-04-30T03:40:52;96233.91;;;4.91;100.00
49841;BME280;35738;49.890;5.930;2023-04-30T03:43:18;96232.28;;;4.90;100.00
49841;BME280;35738;49.890;5.930;2023-04-30T03:45:46;96238.31;;;4.87;100.00
49841;BME280;35738;49.890;5.930;2023-04-30T03:48:12;96240.50;;;4.85;100.00
49841;BME280;35738;49.890;5.930;2023-04-30T03:50:39;96236.97;;;4.85;100.00
49841;BME280;35738;49.890;5.930;2023-04-30T03:53:05;96236.75;;;4.76;100.00
49841;BME280;35738;49.890;5.930;2023-04-30T03:55:32;96247.34;;;4.83;100.00
49841;BME280;35738;49.890;5.930;2023-04-30T03:57:59;96237.56;;;4.76;100.00
49841;BME280;35738;49.890;5.930;2023-04-30T04:00:26;96243.91;;;4.67;100.00
49841;BME280;35738;49.890;5.930;2023-04-30T04:02:53;96247.44;;;4.67;100.00
49841;BME280;35738;49.890;5.930;2023-04-30T04:05:20;96246.63;;;4.67;100.00
49841;BME280;35738;49.890;5.930;2023-04-30T04:07:46;96241.72;;;4.69;100.00
49841;BME280;35738;49.890;5.930;2023-04-30T04:10:13;96247.97;;;4.69;100.00
49841;BME280;35738;49.890;5.930;2023-04-30T04:12:40;96253.41;;;4.69;100.00
49841;BME280;35738;49.890;5.930;2023-04-30T04:15:07;96249.59;;;4.70;100.00
49841;BME280;35738;49.890;5.930;2023-04-30T04:17:34;96252.03;;;4.72;100.00
49841;BME280;35738;49.890;5.930;2023-04-30T04:20:00;96247.41;;;4.72;100.00
49841;BME280;35738;49.890;5.930;2023-04-30T04:22:27;96251.75;;;4.73;100.00
49841;BME280;35738;49.890;5.930;2023-04-30T04:24:53;96251.47;;;4.75;100.00
49841;BME280;35738;49.890;5.930;2023-04-30T04:27:20;96256.94;;;4.75;100.00
49841;BME280;35738;49.890;5.930;2023-04-30T04:29:47;96248.78;;;4.70;100.00
49841;BME280;35738;49.890;5.930;2023-04-30T04:32:13;96249.59;;;4.70;100.00
49841;BME280;35738;49.890;5.930;2023-04-30T04:34:40;96251.50;;;4.70;100.00
49841;BME280;35738;49.890;5.930;2023-04-30T04:37:08;96250.94;;;4.73;100.00
49841;BME280;35738;49.890;5.930;2023-04-30T04:39:35;96252.31;;;4.70;100.00
49841;BME280;35738;49.890;5.930;2023-04-30T04:42:03;96251.78;;;4.68;100.00
49841;BME280;35738;49.890;5.930;2023-04-30T04:44:30;96249.06;;;4.68;100.00
49841;BME280;35738;49.890;5.930;2023-04-30T04:46:58;96255.00;;;4.75;100.00
49841;BME280;35738;49.890;5.930;2023-04-30T04:49:25;96253.34;;;4.79;100.00
49841;BME280;35738;49.890;5.930;2023-04-30T04:51:52;96257.69;;;4.81;100.00
49841;BME280;35738;49.890;5.930;2023-04-30T04:54:19;96268.56;;;4.86;100.00
49841;BME280;35738;49.890;5.930;2023-04-30T04:56:46;96263.31;;;4.94;100.00
49841;BME280;35738;49.890;5.930;2023-04-30T04:59:13;96269.03;;;4.98;100.00
49841;BME280;35738;49.890;5.930;2023-04-30T05:01:39;96267.88;;;5.04;100.00
49841;BME280;35738;49.890;5.930;2023-04-30T05:04:06;96268.66;;;5.09;100.00
49841;BME280;35738;49.890;5.930;2023-04-30T05:06:35;96265.63;;;5.11;100.00
49841;BME280;35738;49.890;5.930;2023-04-30T05:09:01;96266.16;;;5.13;100.00
49841;BME280;35738;49.890;5.930;2023-04-30T05:11:30;96259.63;;;5.14;100.00
49841;BME280;35738;49.890;5.930;2023-04-30T05:13:57;96257.47;;;5.11;100.00
49841;BME280;35738;49.890;5.930;2023-04-30T05:16:24;96265.34;;;5.13;100.00
49841;BME280;35738;49.890;5.930;2023-04-30T05:18:52;96256.91;;;5.14;100.00
49841;BME280;35738;49.890;5.930;2023-04-30T05:21:18;96255.78;;;5.15;100.00
49841;BME280;35738;49.890;5.930;2023-04-30T05:23:45;96262.56;;;5.23;100.00
49841;BME280;35738;49.890;5.930;2023-04-30T05:26:12;96269.94;;;5.51;100.00
49841;BME280;35738;49.890;5.930;2023-04-30T05:28:41;96261.81;;;5.46;100.00
49841;BME280;35738;49.890;5.930;2023-04-30T05:31:08;96266.22;;;5.42;100.00
49841;BME280;35738;49.890;5.930;2023-04-30T05:33:35;96266.50;;;5.40;100.00
49841;BME280;35738;49.890;5.930;2023-04-30T05:36:02;96267.50;;;5.50;100.00
49841;BME280;35738;49.890;5.930;2023-04-30T05:38:29;96258.22;;;5.51;100.00
49841;BME280;35738;49.890;5.930;2023-04-30T05:40:56;96261.97;;;5.84;100.00
49841;BME280;35738;49.890;5.930;2023-04-30T05:43:22;96257.09;;;6.10;100.00
49841;BME280;35738;49.890;5.930;2023-04-30T05:45:49;96258.19;;;6.51;100.00
49841;BME280;35738;49.890;5.930;2023-04-30T05:48:15;96251.81;;;7.12;100.00
49841;BME280;35738;49.890;5.930;2023-04-30T05:50:42;96249.75;;;7.55;100.00
49841;BME280;35738;49.890;5.930;2023-04-30T05:53:09;96241.75;;;7.73;100.00
49841;BME280;35738;49.890;5.930;2023-04-30T05:55:35;96236.72;;;7.93;100.00
49841;BME280;35738;49.890;5.930;2023-04-30T05:58:02;96245.03;;;8.16;100.00
49841;BME280;35738;49.890;5.930;2023-04-30T06:00:28;96227.38;;;8.08;100.00
49841;BME280;35738;49.890;5.930;2023-04-30T06:02:55;96234.88;;;8.16;100.00
49841;BME280;35738;49.890;5.930;2023-04-30T06:05:22;96226.38;;;8.18;100.00
49841;BME280;35738;49.890;5.930;2023-04-30T06:07:48;96229.28;;;7.67;100.00
49841;BME280;35738;49.890;5.930;2023-04-30T06:10:15;96221.31;;;7.38;100.00
49841;BME280;35738;49.890;5.930;2023-04-30T06:12:42;96220.56;;;7.32;100.00
49841;BME280;35738;49.890;5.930;2023-04-30T06:15:11;96222.28;;;7.28;100.00
49841;BME280;35738;49.890;5.930;2023-04-30T06:17:37;96229.56;;;7.19;100.00
49841;BME280;35738;49.890;5.930;2023-04-30T06:20:05;96216.13;;;7.96;100.00
49841;BME280;35738;49.890;5.930;2023-04-30T06:22:32;96224.06;;;8.75;100.00
49841;BME280;35738;49.890;5.930;2023-04-30T06:24:59;96207.94;;;9.63;100.00
49841;BME280;35738;49.890;5.930;2023-04-30T06:27:26;96197.38;;;9.56;100.00
49841;BME280;35738;49.890;5.930;2023-04-30T06:29:57;96205.03;;;9.37;100.00
49841;BME280;35738;49.890;5.930;2023-04-30T06:32:26;96194.03;;;9.90;100.00
49841;BME280;35738;49.890;5.930;2023-04-30T06:34:54;96187.56;;;9.64;100.00
49841;BME280;35738;49.890;5.930;2023-04-30T06:37:20;96188.06;;;9.35;100.00
49841;BME280;35738;49.890;5.930;2023-04-30T06:39:48;96189.81;;;9.31;100.00
49841;BME280;35738;49.890;5.930;2023-04-30T06:42:14;96191.31;;;9.37;100.00
49841;BME280;35738;49.890;5.930;2023-04-30T06:44:41;96198.50;;;9.55;100.00
49841;BME280;35738;49.890;5.930;2023-04-30T06:47:07;96188.16;;;9.83;100.00
49841;BME280;35738;49.890;5.930;2023-04-30T06:49:34;96192.50;;;9.75;100.00
49841;BME280;35738;49.890;5.930;2023-04-30T06:52:01;96188.69;;;9.94;100.00
49841;BME280;35738;49.890;5.930;2023-04-30T06:54:28;96191.59;;;9.88;100.00
49841;BME280;35738;49.890;5.930;2023-04-30T06:56:55;96189.72;;;10.06;100.00
49841;BME280;35738;49.890;5.930;2023-04-30T06:59:22;96186.47;;;10.04;100.00
49841;BME280;35738;49.890;5.930;2023-04-30T07:01:48;96193.94;;;10.12;100.00
49841;BME280;35738;49.890;5.930;2023-04-30T07:04:15;96182.69;;;10.31;100.00
49841;BME280;35738;49.890;5.930;2023-04-30T07:06:41;96182.41;;;10.41;100.00
49841;BME280;35738;49.890;5.930;2023-04-30T07:09:08;96192.63;;;10.10;100.00
49841;BME280;35738;49.890;5.930;2023-04-30T07:11:35;96201.38;;;9.72;100.00
49841;BME280;35738;49.890;5.930;2023-04-30T07:14:02;96205.94;;;9.54;100.00
49841;BME280;35738;49.890;5.930;2023-04-30T07:16:28;96210.03;;;9.35;100.00
49841;BME280;35738;49.890;5.930;2023-04-30T07:18:55;96205.13;;;9.54;100.00
49841;BME280;35738;49.890;5.930;2023-04-30T07:21:21;96207.75;;;9.59;100.00
49841;BME280;35738;49.890;5.930;2023-04-30T07:23:50;96203.38;;;9.58;100.00
49841;BME280;35738;49.890;5.930;2023-04-30T07:26:17;96191.91;;;9.87;100.00
49841;BME280;35738;49.890;5.930;2023-04-30T07:28:46;96201.44;;;9.90;100.00
49841;BME280;35738;49.890;5.930;2023-04-30T07:31:13;96195.13;;;9.80;100.00
49841;BME280;35738;49.890;5.930;2023-04-30T07:33:39;96196.03;;;10.07;100.00
49841;BME280;35738;49.890;5.930;2023-04-30T07:36:06;96190.66;;;10.02;100.00
49841;BME280;35738;49.890;5.930;2023-04-30T07:38:33;96193.72;;;10.00;100.00
49841;BME280;35738;49.890;5.930;2023-04-30T07:40:59;96186.66;;;10.65;100.00
49841;BME280;35738;49.890;5.930;2023-04-30T07:43:27;96174.53;;;10.09;100.00
49841;BME280;35738;49.890;5.930;2023-04-30T07:45:57;96181.88;;;10.31;100.00
49841;BME280;35738;49.890;5.930;2023-04-30T07:48:23;96177.50;;;10.21;100.00
49841;BME280;35738;49.890;5.930;2023-04-30T07:50:50;96188.59;;;10.73;100.00
49841;BME280;35738;49.890;5.930;2023-04-30T07:53:18;96199.94;;;10.97;100.00
49841;BME280;35738;49.890;5.930;2023-04-30T07:55:45;96180.31;;;10.47;100.00
49841;BME280;35738;49.890;5.930;2023-04-30T07:58:11;96178.75;;;10.15;100.00
49841;BME280;35738;49.890;5.930;2023-04-30T08:00:38;96183.00;;;10.21;100.00
49841;BME280;35738;49.890;5.930;2023-04-30T08:03:05;96181.78;;;10.53;100.00
49841;BME280;35738;49.890;5.930;2023-04-30T08:05:31;96188.41;;;10.43;100.00
49841;BME280;35738;49.890;5.930;2023-04-30T08:07:58;96191.09;;;10.26;100.00
49841;BME280;35738;49.890;5.930;2023-04-30T08:10:25;96192.16;;;10.82;100.00
49841;BME280;35738;49.890;5.930;2023-04-30T08:12:52;96184.88;;;10.95;100.00
49841;BME280;35738;49.890;5.930;2023-04-30T08:15:18;96188.53;;;10.38;100.00
49841;BME280;35738;49.890;5.930;2023-04-30T08:17:49;96187.63;;;10.86;100.00
49841;BME280;35738;49.890;5.930;2023-04-30T08:20:16;96186.34;;;10.75;100.00
49841;BME280;35738;49.890;5.930;2023-04-30T08:22:43;96187.47;;;11.34;100.00
49841;BME280;35738;49.890;5.930;2023-04-30T08:25:10;96183.84;;;11.51;100.00
49841;BME280;35738;49.890;5.930;2023-04-30T08:27:38;96185.94;;;10.33;100.00
49841;BME280;35738;49.890;5.930;2023-04-30T08:30:05;96194.41;;;10.06;100.00
49841;BME280;35738;49.890;5.930;2023-04-30T08:32:36;96195.88;;;10.12;100.00
49841;BME280;35738;49.890;5.930;2023-04-30T08:35:04;96188.22;;;10.40;100.00
49841;BME280;35738;49.890;5.930;2023-04-30T08:37:31;96190.88;;;10.71;100.00
49841;BME280;35738;49.890;5.930;2023-04-30T08:39:58;96190.22;;;10.91;100.00
49841;BME280;35738;49.890;5.930;2023-04-30T08:42:29;96184.22;;;11.32;100.00
49841;BME280;35738;49.890;5.930;2023-04-30T08:45:03;96197.28;;;11.53;100.00
49841;BME280;35738;49.890;5.930;2023-04-30T08:47:30;96182.75;;;11.09;100.00
49841;BME280;35738;49.890;5.930;2023-04-30T08:49:57;96185.53;;;11.18;100.00
49841;BME280;35738;49.890;5.930;2023-04-30T08:52:23;96186.13;;;11.49;100.00
49841;BME280;35738;49.890;5.930;2023-04-30T08:54:53;96183.09;;;11.33;100.00
49841;BME280;35738;49.890;5.930;2023-04-30T08:57:20;96181.78;;;11.39;100.00
49841;BME280;35738;49.890;5.930;2023-04-30T08:59:47;96189.78;;;11.70;100.00
49841;BME280;35738;49.890;5.930;2023-04-30T09:02:13;96191.97;;;11.48;100.00
49841;BME280;35738;49.890;5.930;2023-04-30T09:04:40;96191.44;;;11.63;100.00
49841;BME280;35738;49.890;5.930;2023-04-30T09:07:07;96186.72;;;11.72;100.00
49841;BME280;35738;49.890;5.930;2023-04-30T09:09:38;96188.75;;;12.01;100.00
49841;BME280;35738;49.890;5.930;2023-04-30T09:12:16;96190.09;;;11.95;100.00
49841;BME280;35738;49.890;5.930;2023-04-30T09:15:03;96186.69;;;12.27;100.00
49841;BME280;35738;49.890;5.930;2023-04-30T09:17:39;96189.56;;;11.29;100.00
49841;BME280;35738;49.890;5.930;2023-04-30T09:20:11;96180.44;;;11.54;100.00
49841;BME280;35738;49.890;5.930;2023-04-30T09:22:39;96189.22;;;11.39;100.00
49841;BME280;35738;49.890;5.930;2023-04-30T09:25:09;96179.03;;;11.05;100.00
49841;BME280;35738;49.890;5.930;2023-04-30T09:27:36;96177.44;;;11.21;100.00
49841;BME280;35738;49.890;5.930;2023-04-30T09:30:03;96181.44;;;11.50;100.00
49841;BME280;35738;49.890;5.930;2023-04-30T09:32:30;96189.56;;;10.94;100.00
49841;BME280;35738;49.890;5.930;2023-04-30T09:34:56;96182.44;;;11.28;100.00
49841;BME280;35738;49.890;5.930;2023-04-30T09:37:34;96188.91;;;11.40;100.00
49841;BME280;35738;49.890;5.930;2023-04-30T09:40:01;96173.38;;;11.10;100.00
49841;BME280;35738;49.890;5.930;2023-04-30T09:42:29;96181.31;;;11.29;100.00
49841;BME280;35738;49.890;5.930;2023-04-30T09:44:56;96174.22;;;11.92;100.00
49841;BME280;35738;49.890;5.930;2023-04-30T09:47:28;96175.38;;;12.20;100.00
49841;BME280;35738;49.890;5.930;2023-04-30T09:49:58;96178.38;;;12.57;100.00
49841;BME280;35738;49.890;5.930;2023-04-30T09:52:25;96172.72;;;12.32;100.00
49841;BME280;35738;49.890;5.930;2023-04-30T09:54:53;96168.88;;;12.75;100.00
49841;BME280;35738;49.890;5.930;2023-04-30T09:57:22;96163.56;;;12.70;100.00
49841;BME280;35738;49.890;5.930;2023-04-30T09:59:51;96159.09;;;12.57;100.00
49841;BME280;35738;49.890;5.930;2023-04-30T10:02:19;96158.16;;;12.94;100.00
49841;BME280;35738;49.890;5.930;2023-04-30T10:04:54;96165.50;;;12.69;100.00
49841;BME280;35738;49.890;5.930;2023-04-30T10:07:23;96149.44;;;12.42;100.00
49841;BME280;35738;49.890;5.930;2023-04-30T10:09:57;96151.69;;;12.19;100.00
49841;BME280;35738;49.890;5.930;2023-04-30T10:12:42;96147.38;;;12.09;100.00
49841;BME280;35738;49.890;5.930;2023-04-30T10:15:14;96148.78;;;12.45;100.00
49841;BME280;35738;49.890;5.930;2023-04-30T10:17:48;96145.81;;;13.13;100.00
49841;BME280;35738;49.890;5.930;2023-04-30T10:20:16;96146.06;;;12.87;100.00
49841;BME280;35738;49.890;5.930;2023-04-30T10:22:43;96150.34;;;12.96;100.00
49841;BME280;35738;49.890;5.930;2023-04-30T10:25:11;96137.50;;;12.80;100.00
49841;BME280;35738;49.890;5.930;2023-04-30T10:27:38;96132.75;;;13.43;100.00
49841;BME280;35738;49.890;5.930;2023-04-30T10:30:06;96134.78;;;13.91;100.00
49841;BME280;35738;49.890;5.930;2023-04-30T10:35:36;96134.25;;;13.19;100.00
49841;BME280;35738;49.890;5.930;2023-04-30T10:40:35;96131.13;;;13.42;100.00
49841;BME280;35738;49.890;5.930;2023-04-30T10:43:02;96130.13;;;13.25;100.00
49841;BME280;35738;49.890;5.930;2023-04-30T10:45:35;96124.88;;;13.12;100.00
49841;BME280;35738;49.890;5.930;2023-04-30T10:48:04;96117.13;;;13.59;100.00
49841;BME280;35738;49.890;5.930;2023-04-30T10:50:31;96117.13;;;13.71;100.00
49841;BME280;35738;49.890;5.930;2023-04-30T10:53:02;96100.91;;;13.94;100.00
49841;BME280;35738;49.890;5.930;2023-04-30T10:55:30;96111.50;;;13.67;100.00
49841;BME280;35738;49.890;5.930;2023-04-30T10:57:57;96116.28;;;13.46;100.00
49841;BME280;35738;49.890;5.930;2023-04-30T11:00:26;96101.50;;;13.09;100.00
49841;BME280;35738;49.890;5.930;2023-04-30T11:02:57;96106.44;;;12.62;100.00
49841;BME280;35738;49.890;5.930;2023-04-30T11:05:36;96114.91;;;13.40;100.00
49841;BME280;35738;49.890;5.930;2023-04-30T11:08:03;96105.63;;;13.24;100.00
49841;BME280;35738;49.890;5.930;2023-04-30T11:10:34;96108.72;;;13.55;100.00
49841;BME280;35738;49.890;5.930;2023-04-30T11:13:05;96110.34;;;13.02;100.00
49841;BME280;35738;49.890;5.930;2023-04-30T11:15:39;96102.06;;;13.02;100.00
49841;BME280;35738;49.890;5.930;2023-04-30T11:18:07;96096.53;;;13.02;100.00
49841;BME280;35738;49.890;5.930;2023-04-30T11:20:39;96107.53;;;13.44;100.00
49841;BME280;35738;49.890;5.930;2023-04-30T11:23:14;96101.59;;;13.21;100.00
49841;BME280;35738;49.890;5.930;2023-04-30T11:25:54;96099.72;;;12.92;100.00
49841;BME280;35738;49.890;5.930;2023-04-30T11:28:24;96103.53;;;13.21;100.00
49841;BME280;35738;49.890;5.930;2023-04-30T11:33:19;96106.09;;;13.26;100.00
49841;BME280;35738;49.890;5.930;2023-04-30T11:35:47;96097.13;;;13.08;100.00
49841;BME280;35738;49.890;5.930;2023-04-30T11:38:16;96102.88;;;12.40;100.00
49841;BME280;35738;49.890;5.930;2023-04-30T11:40:43;96089.84;;;12.50;100.00
49841;BME280;35738;49.890;5.930;2023-04-30T11:43:41;96089.19;;;12.02;100.00
49841;BME280;35738;49.890;5.930;2023-04-30T11:46:12;96095.88;;;12.43;100.00
49841;BME280;35738;49.890;5.930;2023-04-30T11:48:43;96093.28;;;13.21;100.00
49841;BME280;35738;49.890;5.930;2023-04-30T11:51:18;96083.47;;;13.12;100.00
49841;BME280;35738;49.890;5.930;2023-04-30T11:53:46;96086.97;;;12.67;100.00
49841;BME280;35738;49.890;5.930;2023-04-30T11:56:18;96084.47;;;13.07;100.00
49841;BME280;35738;49.890;5.930;2023-04-30T11:58:46;96080.78;;;13.36;100.00
49841;BME280;35738;49.890;5.930;2023-04-30T12:01:14;96071.91;;;12.97;100.00
49841;BME280;35738;49.890;5.930;2023-04-30T12:03:45;96075.44;;;13.52;100.00
49841;BME280;35738;49.890;5.930;2023-04-30T12:06:25;96068.16;;;13.47;100.00
49841;BME280;35738;49.890;5.930;2023-04-30T12:08:54;96069.88;;;13.07;100.00
49841;BME280;35738;49.890;5.930;2023-04-30T12:11:28;96078.13;;;13.27;100.00
49841;BME280;35738;49.890;5.930;2023-04-30T12:16:45;96070.03;;;12.89;100.00
49841;BME280;35738;49.890;5.930;2023-04-30T12:19:18;96070.13;;;13.14;100.00
49841;BME280;35738;49.890;5.930;2023-04-30T12:21:46;96054.59;;;13.54;100.00
49841;BME280;35738;49.890;5.930;2023-04-30T12:24:18;96061.97;;;13.99;100.00
49841;BME280;35738;49.890;5.930;2023-04-30T12:26:44;96045.28;;;13.71;100.00
49841;BME280;35738;49.890;5.930;2023-04-30T12:29:14;96059.91;;;13.72;100.00
49841;BME280;35738;49.890;5.930;2023-04-30T12:31:41;96053.31;;;13.40;100.00
49841;BME280;35738;49.890;5.930;2023-04-30T12:34:11;96063.28;;;13.32;100.00
49841;BME280;35738;49.890;5.930;2023-04-30T12:36:40;96064.34;;;13.07;100.00
49841;BME280;35738;49.890;5.930;2023-04-30T12:39:11;96061.34;;;12.99;100.00
49841;BME280;35738;49.890;5.930;2023-04-30T12:41:41;96064.31;;;12.94;100.00
49841;BME280;35738;49.890;5.930;2023-04-30T12:44:22;96064.00;;;12.75;100.00
49841;BME280;35738;49.890;5.930;2023-04-30T12:46:50;96059.69;;;12.86;100.00
49841;BME280;35738;49.890;5.930;2023-04-30T12:49:26;96059.59;;;13.28;100.00
49841;BME280;35738;49.890;5.930;2023-04-30T12:52:01;96052.22;;;13.32;100.00
49841;BME280;35738;49.890;5.930;2023-04-30T12:54:30;96052.28;;;13.68;100.00
49841;BME280;35738;49.890;5.930;2023-04-30T12:59:30;96042.25;;;14.25;100.00
49841;BME280;35738;49.890;5.930;2023-04-30T13:02:11;96036.69;;;14.37;100.00
49841;BME280;35738;49.890;5.930;2023-04-30T13:04:39;96028.97;;;14.43;100.00
49841;BME280;35738;49.890;5.930;2023-04-30T13:07:07;96023.91;;;14.32;100.00
49841;BME280;35738;49.890;5.930;2023-04-30T13:09:35;96032.94;;;13.81;100.00
49841;BME280;35738;49.890;5.930;2023-04-30T13:12:03;96037.78;;;13.59;100.00
49841;BME280;35738;49.890;5.930;2023-04-30T13:14:30;96026.59;;;13.92;100.00
49841;BME280;35738;49.890;5.930;2023-04-30T13:16:57;96028.66;;;13.95;100.00
49841;BME280;35738;49.890;5.930;2023-04-30T13:19:24;96022.78;;;13.97;100.00
49841;BME280;35738;49.890;5.930;2023-04-30T13:21:52;96025.22;;;13.86;100.00
49841;BME280;35738;49.890;5.930;2023-04-30T13:24:18;96018.19;;;13.89;100.00
49841;BME280;35738;49.890;5.930;2023-04-30T13:26:45;96024.16;;;14.15;100.00
49841;BME280;35738;49.890;5.930;2023-04-30T13:29:11;96019.97;;;14.34;100.00